sensor_id;sensor_type;location;lat;lon;timestamp;temperature;humidity
2523;DHT22;1272;53.332;9.860;2023-07-31T00:00:33;14.80;99.90
2523;DHT22;1272;53.332;9.860;2023-07-31T00:02:59;14.90;99.90
2523;DHT22;1272;53.332;9.860;2023-07-31T00:05:25;14.80;99.90
2523;DHT22;1272;53.332;9.860;2023-07-31T00:07:50;14.80;99.90
2523;DHT22;1272;53.332;9.860;2023-07-31T00:12:43;14.80;99.90
2523;DHT22;1272;53.332;9.860;2023-07-31T00:15:09;14.80;99.90
2523;DHT22;1272;53.332;9.860;2023-07-31T00:17:36;14.80;99.90
2523;DHT22;1272;53.332;9.860;2023-07-31T00:20:02;14.80;99.90
2523;DHT22;1272;53.332;9.860;2023-07-31T00:22:27;14.80;99.90
2523;DHT22;1272;53.332;9.860;2023-07-31T00:24:53;14.80;99.90
2523;DHT22;1272;53.332;9.860;2023-07-31T00:27:19;14.80;99.90
2523;DHT22;1272;53.332;9.860;2023-07-31T00:29:44;14.70;99.90
2523;DHT22;1272;53.332;9.860;2023-07-31T00:32:10;14.80;99.90
2523;DHT22;1272;53.332;9.860;2023-07-31T00:34:36;14.80;99.90
2523;DHT22;1272;53.332;9.860;2023-07-31T00:37:01;14.80;99.90
2523;DHT22;1272;53.332;9.860;2023-07-31T00:39:27;14.80;99.90
2523;DHT22;1272;53.332;9.860;2023-07-31T00:41:53;14.80;99.90
2523;DHT22;1272;53.332;9.860;2023-07-31T00:44:18;14.90;99.90
2523;DHT22;1272;53.332;9.860;2023-07-31T00:46:44;14.90;99.90
2523;DHT22;1272;53.332;9.860;2023-07-31T00:49:11;14.90;99.90
2523;DHT22;1272;53.332;9.860;2023-07-31T00:51:37;14.90;99.90
2523;DHT22;1272;53.332;9.860;2023-07-31T00:54:03;14.90;99.90
2523;DHT22;1272;53.332;9.860;2023-07-31T00:56:29;14.90;99.90
2523;DHT22;1272;53.332;9.860;2023-07-31T00:58:55;14.90;99.90
2523;DHT22;1272;53.332;9.860;2023-07-31T01:01:21;15.00;99.90
2523;DHT22;1272;53.332;9.860;2023-07-31T01:03:48;15.00;99.90
2523;DHT22;1272;53.332;9.860;2023-07-31T01:11:56;15.00;99.90
2523;DHT22;1272;53.332;9.860;2023-07-31T01:14:23;15.00;99.90
2523;DHT22;1272;53.332;9.860;2023-07-31T01:16:48;15.00;99.90
2523;DHT22;1272;53.332;9.860;2023-07-31T01:19:15;15.00;99.90
2523;DHT22;1272;53.332;9.860;2023-07-31T01:25:05;15.00;99.90
2523;DHT22;1272;53.332;9.860;2023-07-31T01:27:35;15.00;99.90
2523;DHT22;1272;53.332;9.860;2023-07-31T01:30:09;15.00;99.90
2523;DHT22;1272;53.332;9.860;2023-07-31T01:32:40;15.00;99.90
2523;DHT22;1272;53.332;9.860;2023-07-31T01:35:07;15.00;99.90
2523;DHT22;1272;53.332;9.860;2023-07-31T01:37:34;15.00;99.90
2523;DHT22;1272;53.332;9.860;2023-07-31T01:40:00;15.00;99.90
2523;DHT22;1272;53.332;9.860;2023-07-31T01:42:25;15.00;99.90
2523;DHT22;1272;53.332;9.860;2023-07-31T01:44:51;15.00;99.90
2523;DHT22;1272;53.332;9.860;2023-07-31T01:47:17;15.00;99.90
2523;DHT22;1272;53.332;9.860;2023-07-31T01:49:42;15.00;99.90
2523;DHT22;1272;53.332;9.860;2023-07-31T01:52:08;15.10;99.90
2523;DHT22;1272;53.332;9.860;2023-07-31T01:54:34;15.10;99.90
2523;DHT22;1272;53.332;9.860;2023-07-31T01:56:59;15.10;99.90
2523;DHT22;1272;53.332;9.860;2023-07-31T01:59:25;15.10;99.90
2523;DHT22;1272;53.332;9.860;2023-07-31T02:01:51;15.10;99.90
2523;DHT22;1272;53.332;9.860;2023-07-31T02:04:16;15.00;99.90
2523;DHT22;1272;53.332;9.860;2023-07-31T02:06:43;15.10;99.90
2523;DHT22;1272;53.332;9.860;2023-07-31T02:09:09;15.10;99.90
2523;DHT22;1272;53.332;9.860;2023-07-31T02:11:35;15.10;99.90
2523;DHT22;1272;53.332;9.860;2023-07-31T02:14:00;15.10;99.90
2523;DHT22;1272;53.332;9.860;2023-07-31T02:16:26;15.20;99.90
2523;DHT22;1272;53.332;9.860;2023-07-31T02:18:52;15.20;99.90
2523;DHT22;1272;53.332;9.860;2023-07-31T02:21:18;15.20;99.90
2523;DHT22;1272;53.332;9.860;2023-07-31T02:23:43;15.20;99.90
2523;DHT22;1272;53.332;9.860;2023-07-31T02:26:09;15.20;99.90
2523;DHT22;1272;53.332;9.860;2023-07-31T02:28:35;15.30;99.90
2523;DHT22;1272;53.332;9.860;2023-07-31T02:31:00;15.30;99.90
2523;DHT22;1272;53.332;9.860;2023-07-31T02:33:26;15.20;99.90
2523;DHT22;1272;53.332;9.860;2023-07-31T02:35:52;15.20;99.90
2523;DHT22;1272;53.332;9.860;2023-07-31T02:38:17;15.20;99.90
2523;DHT22;1272;53.332;9.860;2023-07-31T02:40:43;15.20;99.90
2523;DHT22;1272;53.332;9.860;2023-07-31T02:43:09;15.20;99.90
2523;DHT22;1272;53.332;9.860;2023-07-31T02:45:35;15.20;99.90
2523;DHT22;1272;53.332;9.860;2023-07-31T02:48:01;15.30;99.90
2523;DHT22;1272;53.332;9.860;2023-07-31T02:50:26;15.30;99.90
2523;DHT22;1272;53.332;9.860;2023-07-31T02:52:54;15.30;99.90
2523;DHT22;1272;53.332;9.860;2023-07-31T02:55:19;15.30;99.90
2523;DHT22;1272;53.332;9.860;2023-07-31T02:57:45;15.30;99.90
2523;DHT22;1272;53.332;9.860;2023-07-31T03:00:11;15.30;99.90
2523;DHT22;1272;53.332;9.860;2023-07-31T03:02:37;15.30;99.90
2523;DHT22;1272;53.332;9.860;2023-07-31T03:05:02;15.40;99.90
2523;DHT22;1272;53.332;9.860;2023-07-31T03:07:28;15.30;99.90
2523;DHT22;1272;53.332;9.860;2023-07-31T03:09:55;15.30;99.90
2523;DHT22;1272;53.332;9.860;2023-07-31T03:12:22;15.30;99.90
2523;DHT22;1272;53.332;9.860;2023-07-31T03:14:47;15.30;99.90
2523;DHT22;1272;53.332;9.860;2023-07-31T03:17:13;15.30;99.90
2523;DHT22;1272;53.332;9.860;2023-07-31T03:19:39;15.40;99.90
2523;DHT22;1272;53.332;9.860;2023-07-31T03:22:05;15.30;99.90
2523;DHT22;1272;53.332;9.860;2023-07-31T03:24:30;15.30;99.90
2523;DHT22;1272;53.332;9.860;2023-07-31T03:26:56;15.40;99.90
2523;DHT22;1272;53.332;9.860;2023-07-31T03:29:22;15.40;99.90
2523;DHT22;1272;53.332;9.860;2023-07-31T03:31:47;15.30;99.90
2523;DHT22;1272;53.332;9.860;2023-07-31T03:34:13;15.30;99.90
2523;DHT22;1272;53.332;9.860;2023-07-31T03:36:39;15.30;99.90
2523;DHT22;1272;53.332;9.860;2023-07-31T03:39:04;15.30;99.90
2523;DHT22;1272;53.332;9.860;2023-07-31T03:41:30;15.30;99.90
2523;DHT22;1272;53.332;9.860;2023-07-31T03:43:56;15.30;99.90
2523;DHT22;1272;53.332;9.860;2023-07-31T03:46:22;15.30;99.90
2523;DHT22;1272;53.332;9.860;2023-07-31T03:48:48;15.30;99.90
2523;DHT22;1272;53.332;9.860;2023-07-31T03:51:14;15.30;99.90
2523;DHT22;1272;53.332;9.860;2023-07-31T03:53:40;15.30;99.90
2523;DHT22;1272;53.332;9.860;2023-07-31T03:56:05;15.30;99.90
2523;DHT22;1272;53.332;9.860;2023-07-31T03:58:31;15.30;99.90
2523;DHT22;1272;53.332;9.860;2023-07-31T04:00:57;15.30;99.90
2523;DHT22;1272;53.332;9.860;2023-07-31T04:03:22;15.30;99.90
2523;DHT22;1272;53.332;9.860;2023-07-31T04:05:48;15.30;99.90
2523;DHT22;1272;53.332;9.860;2023-07-31T04:08:14;15.20;99.90
2523;DHT22;1272;53.332;9.860;2023-07-31T04:10:39;15.30;99.90
2523;DHT22;1272;53.332;9.860;2023-07-31T04:13:05;15.30;99.90
2523;DHT22;1272;53.332;9.860;2023-07-31T04:15:31;15.40;99.90
2523;DHT22;1272;53.332;9.860;2023-07-31T04:17:56;15.40;99.90
2523;DHT22;1272;53.332;9.860;2023-07-31T04:20:22;15.40;99.90
2523;DHT22;1272;53.332;9.860;2023-07-31T04:22:49;15.30;99.90
2523;DHT22;1272;53.332;9.860;2023-07-31T04:25:14;15.30;99.90
2523;DHT22;1272;53.332;9.860;2023-07-31T04:27:40;15.30;99.90
2523;DHT22;1272;53.332;9.860;2023-07-31T04:30:06;15.40;99.90
2523;DHT22;1272;53.332;9.860;2023-07-31T04:32:32;15.30;99.90
2523;DHT22;1272;53.332;9.860;2023-07-31T04:34:58;15.30;99.90
2523;DHT22;1272;53.332;9.860;2023-07-31T04:37:23;15.30;99.90
2523;DHT22;1272;53.332;9.860;2023-07-31T04:39:49;15.30;99.90
2523;DHT22;1272;53.332;9.860;2023-07-31T04:42:15;15.30;99.90
2523;DHT22;1272;53.332;9.860;2023-07-31T04:44:40;15.30;99.90
2523;DHT22;1272;53.332;9.860;2023-07-31T04:47:06;15.30;99.90
2523;DHT22;1272;53.332;9.860;2023-07-31T04:49:32;15.20;99.90
2523;DHT22;1272;53.332;9.860;2023-07-31T04:51:58;15.20;99.90
2523;DHT22;1272;53.332;9.860;2023-07-31T04:54:24;15.30;99.90
2523;DHT22;1272;53.332;9.860;2023-07-31T04:56:49;15.30;99.90
2523;DHT22;1272;53.332;9.860;2023-07-31T04:59:15;15.30;99.90
2523;DHT22;1272;53.332;9.860;2023-07-31T05:01:41;15.40;99.90
2523;DHT22;1272;53.332;9.860;2023-07-31T05:04:06;15.40;99.90
2523;DHT22;1272;53.332;9.860;2023-07-31T05:06:32;15.30;99.90
2523;DHT22;1272;53.332;9.860;2023-07-31T05:08:58;15.30;99.90
2523;DHT22;1272;53.332;9.860;2023-07-31T05:11:24;15.40;99.90
2523;DHT22;1272;53.332;9.860;2023-07-31T05:13:49;15.40;99.90
2523;DHT22;1272;53.332;9.860;2023-07-31T05:16:15;15.40;99.90
2523;DHT22;1272;53.332;9.860;2023-07-31T05:18:41;15.40;99.90
2523;DHT22;1272;53.332;9.860;2023-07-31T05:21:06;15.40;99.90
2523;DHT22;1272;53.332;9.860;2023-07-31T05:23:32;15.40;99.90
2523;DHT22;1272;53.332;9.860;2023-07-31T05:26:08;15.50;99.90
2523;DHT22;1272;53.332;9.860;2023-07-31T05:28:36;15.50;99.90
2523;DHT22;1272;53.332;9.860;2023-07-31T05:31:02;15.50;99.90
2523;DHT22;1272;53.332;9.860;2023-07-31T05:33:28;15.60;99.90
2523;DHT22;1272;53.332;9.860;2023-07-31T05:35:54;15.60;99.90
2523;DHT22;1272;53.332;9.860;2023-07-31T05:38:20;15.50;99.90
2523;DHT22;1272;53.332;9.860;2023-07-31T05:40:46;15.60;99.90
2523;DHT22;1272;53.332;9.860;2023-07-31T05:43:12;15.60;99.90
2523;DHT22;1272;53.332;9.860;2023-07-31T05:45:37;15.60;99.90
2523;DHT22;1272;53.332;9.860;2023-07-31T05:48:03;15.60;99.90
2523;DHT22;1272;53.332;9.860;2023-07-31T05:50:30;15.60;99.90
2523;DHT22;1272;53.332;9.860;2023-07-31T05:52:58;15.60;99.90
2523;DHT22;1272;53.332;9.860;2023-07-31T05:55:25;16.50;99.90
2523;DHT22;1272;53.332;9.860;2023-07-31T05:57:52;15.70;99.90
2523;DHT22;1272;53.332;9.860;2023-07-31T06:00:18;15.70;99.90
2523;DHT22;1272;53.332;9.860;2023-07-31T06:02:44;15.70;99.90
2523;DHT22;1272;53.332;9.860;2023-07-31T06:05:10;15.80;99.90
2523;DHT22;1272;53.332;9.860;2023-07-31T06:07:36;15.80;99.90
2523;DHT22;1272;53.332;9.860;2023-07-31T06:10:02;15.80;99.90
2523;DHT22;1272;53.332;9.860;2023-07-31T06:12:32;15.80;99.90
2523;DHT22;1272;53.332;9.860;2023-07-31T06:14:58;15.80;99.90
2523;DHT22;1272;53.332;9.860;2023-07-31T06:17:23;15.80;99.90
2523;DHT22;1272;53.332;9.860;2023-07-31T06:19:49;15.90;99.90
2523;DHT22;1272;53.332;9.860;2023-07-31T06:22:15;15.90;99.90
2523;DHT22;1272;53.332;9.860;2023-07-31T06:24:41;16.00;99.90
2523;DHT22;1272;53.332;9.860;2023-07-31T06:27:07;16.00;99.90
2523;DHT22;1272;53.332;9.860;2023-07-31T06:29:32;16.00;99.90
2523;DHT22;1272;53.332;9.860;2023-07-31T06:31:59;16.00;99.90
2523;DHT22;1272;53.332;9.860;2023-07-31T06:34:25;16.10;99.90
2523;DHT22;1272;53.332;9.860;2023-07-31T06:36:50;16.20;99.90
2523;DHT22;1272;53.332;9.860;2023-07-31T06:39:16;16.20;99.90
2523;DHT22;1272;53.332;9.860;2023-07-31T06:41:43;16.10;99.90
2523;DHT22;1272;53.332;9.860;2023-07-31T06:44:09;16.20;99.90
2523;DHT22;1272;53.332;9.860;2023-07-31T06:46:35;16.20;99.90
2523;DHT22;1272;53.332;9.860;2023-07-31T06:49:01;16.20;99.90
2523;DHT22;1272;53.332;9.860;2023-07-31T06:51:26;16.20;99.90
2523;DHT22;1272;53.332;9.860;2023-07-31T06:53:52;16.30;99.90
2523;DHT22;1272;53.332;9.860;2023-07-31T06:56:18;16.30;99.90
2523;DHT22;1272;53.332;9.860;2023-07-31T06:58:43;16.30;99.90
2523;DHT22;1272;53.332;9.860;2023-07-31T07:01:09;16.30;99.90
2523;DHT22;1272;53.332;9.860;2023-07-31T07:03:35;16.30;99.90
2523;DHT22;1272;53.332;9.860;2023-07-31T07:06:00;16.40;99.90
2523;DHT22;1272;53.332;9.860;2023-07-31T07:08:26;16.40;99.90
2523;DHT22;1272;53.332;9.860;2023-07-31T07:10:52;16.40;99.90
2523;DHT22;1272;53.332;9.860;2023-07-31T07:13:17;16.40;99.90
2523;DHT22;1272;53.332;9.860;2023-07-31T07:15:53;16.40;99.90
2523;DHT22;1272;53.332;9.860;2023-07-31T07:18:18;16.40;99.90
2523;DHT22;1272;53.332;9.860;2023-07-31T07:20:51;16.50;99.90
2523;DHT22;1272;53.332;9.860;2023-07-31T07:23:17;16.50;99.90
2523;DHT22;1272;53.332;9.860;2023-07-31T07:25:44;16.50;99.90
2523;DHT22;1272;53.332;9.860;2023-07-31T07:28:10;16.50;99.90
2523;DHT22;1272;53.332;9.860;2023-07-31T07:30:36;16.50;99.90
2523;DHT22;1272;53.332;9.860;2023-07-31T07:33:02;16.50;99.90
2523;DHT22;1272;53.332;9.860;2023-07-31T07:35:28;16.60;99.90
2523;DHT22;1272;53.332;9.860;2023-07-31T07:37:54;16.60;99.90
2523;DHT22;1272;53.332;9.860;2023-07-31T07:40:20;16.70;99.90
2523;DHT22;1272;53.332;9.860;2023-07-31T07:42:46;16.70;99.90
2523;DHT22;1272;53.332;9.860;2023-07-31T07:45:12;16.70;99.90
2523;DHT22;1272;53.332;9.860;2023-07-31T07:47:41;16.70;99.90
2523;DHT22;1272;53.332;9.860;2023-07-31T07:50:08;16.80;99.90
2523;DHT22;1272;53.332;9.860;2023-07-31T07:52:34;16.90;99.90
2523;DHT22;1272;53.332;9.860;2023-07-31T07:54:59;17.00;99.90
2523;DHT22;1272;53.332;9.860;2023-07-31T07:57:26;17.00;99.90
2523;DHT22;1272;53.332;9.860;2023-07-31T07:59:52;17.00;99.90
2523;DHT22;1272;53.332;9.860;2023-07-31T08:02:17;17.00;99.90
2523;DHT22;1272;53.332;9.860;2023-07-31T08:04:43;17.00;99.90
2523;DHT22;1272;53.332;9.860;2023-07-31T08:07:11;17.00;99.90
2523;DHT22;1272;53.332;9.860;2023-07-31T08:09:40;17.10;99.90
2523;DHT22;1272;53.332;9.860;2023-07-31T08:12:06;17.10;99.90
2523;DHT22;1272;53.332;9.860;2023-07-31T08:14:32;17.20;99.90
2523;DHT22;1272;53.332;9.860;2023-07-31T08:16:58;17.30;99.90
2523;DHT22;1272;53.332;9.860;2023-07-31T08:19:24;17.30;99.90
2523;DHT22;1272;53.332;9.860;2023-07-31T08:21:49;17.40;99.90
2523;DHT22;1272;53.332;9.860;2023-07-31T08:24:15;17.40;99.90
2523;DHT22;1272;53.332;9.860;2023-07-31T08:26:42;17.40;99.90
2523;DHT22;1272;53.332;9.860;2023-07-31T08:29:08;17.40;99.90
2523;DHT22;1272;53.332;9.860;2023-07-31T08:31:33;17.40;99.90
2523;DHT22;1272;53.332;9.860;2023-07-31T08:34:00;17.40;99.90
2523;DHT22;1272;53.332;9.860;2023-07-31T08:36:25;17.40;99.90
2523;DHT22;1272;53.332;9.860;2023-07-31T08:38:51;17.30;99.90
2523;DHT22;1272;53.332;9.860;2023-07-31T08:41:17;17.20;99.90
2523;DHT22;1272;53.332;9.860;2023-07-31T08:43:47;17.20;99.90
2523;DHT22;1272;53.332;9.860;2023-07-31T08:46:13;17.20;99.90
2523;DHT22;1272;53.332;9.860;2023-07-31T08:48:44;17.20;99.90
2523;DHT22;1272;53.332;9.860;2023-07-31T08:51:10;17.20;99.90
2523;DHT22;1272;53.332;9.860;2023-07-31T08:53:36;17.20;99.90
2523;DHT22;1272;53.332;9.860;2023-07-31T08:56:02;17.10;99.90
2523;DHT22;1272;53.332;9.860;2023-07-31T08:58:31;17.10;99.90
2523;DHT22;1272;53.332;9.860;2023-07-31T09:00:59;17.10;99.90
2523;DHT22;1272;53.332;9.860;2023-07-31T09:03:26;17.10;99.90
2523;DHT22;1272;53.332;9.860;2023-07-31T09:05:53;17.20;99.90
2523;DHT22;1272;53.332;9.860;2023-07-31T09:08:21;17.10;99.90
2523;DHT22;1272;53.332;9.860;2023-07-31T09:10:48;17.10;99.90
2523;DHT22;1272;53.332;9.860;2023-07-31T09:13:15;17.10;99.90
2523;DHT22;1272;53.332;9.860;2023-07-31T09:15:44;17.10;99.90
2523;DHT22;1272;53.332;9.860;2023-07-31T09:18:11;17.10;99.90
2523;DHT22;1272;53.332;9.860;2023-07-31T09:20:37;17.00;99.90
2523;DHT22;1272;53.332;9.860;2023-07-31T09:23:11;17.10;99.90
2523;DHT22;1272;53.332;9.860;2023-07-31T09:25:38;17.10;99.90
2523;DHT22;1272;53.332;9.860;2023-07-31T09:28:08;17.10;99.90
2523;DHT22;1272;53.332;9.860;2023-07-31T09:31:03;17.10;99.90
2523;DHT22;1272;53.332;9.860;2023-07-31T09:33:29;17.00;99.90
2523;DHT22;1272;53.332;9.860;2023-07-31T09:35:58;17.00;99.90
2523;DHT22;1272;53.332;9.860;2023-07-31T09:38:25;17.00;99.90
2523;DHT22;1272;53.332;9.860;2023-07-31T09:40:50;17.00;99.90
2523;DHT22;1272;53.332;9.860;2023-07-31T09:43:20;17.00;99.90
2523;DHT22;1272;53.332;9.860;2023-07-31T09:45:47;17.10;99.90
2523;DHT22;1272;53.332;9.860;2023-07-31T09:48:15;17.00;99.90
2523;DHT22;1272;53.332;9.860;2023-07-31T09:50:46;17.00;99.90
2523;DHT22;1272;53.332;9.860;2023-07-31T09:53:12;17.10;99.90
2523;DHT22;1272;53.332;9.860;2023-07-31T09:55:38;17.10;99.90
2523;DHT22;1272;53.332;9.860;2023-07-31T09:58:06;17.10;99.90
2523;DHT22;1272;53.332;9.860;2023-07-31T10:00:32;17.20;99.90
2523;DHT22;1272;53.332;9.860;2023-07-31T10:03:06;17.20;99.90
2523;DHT22;1272;53.332;9.860;2023-07-31T10:08:03;17.20;99.90
2523;DHT22;1272;53.332;9.860;2023-07-31T10:10:29;17.20;99.90
2523;DHT22;1272;53.332;9.860;2023-07-31T10:12:56;17.10;99.90
2523;DHT22;1272;53.332;9.860;2023-07-31T10:15:23;17.10;99.90
2523;DHT22;1272;53.332;9.860;2023-07-31T10:17:50;17.20;99.90
2523;DHT22;1272;53.332;9.860;2023-07-31T10:20:16;17.20;99.90
2523;DHT22;1272;53.332;9.860;2023-07-31T10:22:43;17.20;99.90
2523;DHT22;1272;53.332;9.860;2023-07-31T10:25:09;17.30;99.90
2523;DHT22;1272;53.332;9.860;2023-07-31T10:27:36;17.30;99.90
2523;DHT22;1272;53.332;9.860;2023-07-31T10:30:04;17.30;99.90
2523;DHT22;1272;53.332;9.860;2023-07-31T10:32:31;17.40;99.90
2523;DHT22;1272;53.332;9.860;2023-07-31T10:34:57;17.30;99.90
2523;DHT22;1272;53.332;9.860;2023-07-31T10:37:25;17.40;99.90
2523;DHT22;1272;53.332;9.860;2023-07-31T10:40:00;17.50;99.90
2523;DHT22;1272;53.332;9.860;2023-07-31T10:42:44;17.50;99.90
2523;DHT22;1272;53.332;9.860;2023-07-31T10:45:10;17.60;99.90
2523;DHT22;1272;53.332;9.860;2023-07-31T10:47:44;17.50;99.90
2523;DHT22;1272;53.332;9.860;2023-07-31T10:50:18;17.50;99.90
2523;DHT22;1272;53.332;9.860;2023-07-31T10:52:50;17.60;99.90
2523;DHT22;1272;53.332;9.860;2023-07-31T10:57:54;17.60;99.90
2523;DHT22;1272;53.332;9.860;2023-07-31T11:00:28;17.70;99.90
2523;DHT22;1272;53.332;9.860;2023-07-31T11:06:00;17.70;99.90
2523;DHT22;1272;53.332;9.860;2023-07-31T11:08:35;17.80;99.90
2523;DHT22;1272;53.332;9.860;2023-07-31T11:13:41;17.90;99.90
2523;DHT22;1272;53.332;9.860;2023-07-31T11:16:08;17.90;99.90
2523;DHT22;1272;53.332;9.860;2023-07-31T11:18:34;17.90;99.90
2523;DHT22;1272;53.332;9.860;2023-07-31T11:21:00;17.90;99.90
2523;DHT22;1272;53.332;9.860;2023-07-31T11:23:25;17.90;99.90
2523;DHT22;1272;53.332;9.860;2023-07-31T11:25:51;17.80;99.90
2523;DHT22;1272;53.332;9.860;2023-07-31T11:28:18;17.90;99.90
2523;DHT22;1272;53.332;9.860;2023-07-31T11:30:45;17.90;99.90
2523;DHT22;1272;53.332;9.860;2023-07-31T11:33:12;17.90;99.90
2523;DHT22;1272;53.332;9.860;2023-07-31T11:35:46;17.80;99.90
2523;DHT22;1272;53.332;9.860;2023-07-31T11:40:48;17.90;99.90
2523;DHT22;1272;53.332;9.860;2023-07-31T11:43:14;17.90;99.90
2523;DHT22;1272;53.332;9.860;2023-07-31T11:45:46;17.90;99.90
2523;DHT22;1272;53.332;9.860;2023-07-31T11:51:04;17.90;99.90
2523;DHT22;1272;53.332;9.860;2023-07-31T11:56:08;17.90;99.90
2523;DHT22;1272;53.332;9.860;2023-07-31T11:58:37;17.90;99.90
2523;DHT22;1272;53.332;9.860;2023-07-31T12:01:04;18.00;99.90
2523;DHT22;1272;53.332;9.860;2023-07-31T12:03:31;18.00;99.90
2523;DHT22;1272;53.332;9.860;2023-07-31T12:05:59;18.10;99.90
2523;DHT22;1272;53.332;9.860;2023-07-31T12:08:25;18.10;99.90
2523;DHT22;1272;53.332;9.860;2023-07-31T12:10:52;18.10;99.90
2523;DHT22;1272;53.332;9.860;2023-07-31T12:13:25;18.10;99.90
2523;DHT22;1272;53.332;9.860;2023-07-31T12:15:56;18.10;99.90
2523;DHT22;1272;53.332;9.860;2023-07-31T12:18:24;18.10;99.90
2523;DHT22;1272;53.332;9.860;2023-07-31T12:20:54;18.20;99.90
2523;DHT22;1272;53.332;9.860;2023-07-31T12:23:23;18.20;99.90
2523;DHT22;1272;53.332;9.860;2023-07-31T12:28:40;18.30;99.90
2523;DHT22;1272;53.332;9.860;2023-07-31T12:31:08;18.30;99.90
2523;DHT22;1272;53.332;9.860;2023-07-31T12:33:35;18.30;99.90
2523;DHT22;1272;53.332;9.860;2023-07-31T12:36:03;18.30;99.90
2523;DHT22;1272;53.332;9.860;2023-07-31T12:38:30;18.30;99.90
2523;DHT22;1272;53.332;9.860;2023-07-31T12:40:56;18.20;99.90
2523;DHT22;1272;53.332;9.860;2023-07-31T12:43:22;18.20;99.90
2523;DHT22;1272;53.332;9.860;2023-07-31T12:45:47;18.00;99.90
2523;DHT22;1272;53.332;9.860;2023-07-31T12:48:13;18.20;99.90
2523;DHT22;1272;53.332;9.860;2023-07-31T12:50:39;18.30;99.90
2523;DHT22;1272;53.332;9.860;2023-07-31T12:53:05;18.30;99.90
2523;DHT22;1272;53.332;9.860;2023-07-31T12:55:31;18.30;99.90
2523;DHT22;1272;53.332;9.860;2023-07-31T12:58:00;18.30;99.90
2523;DHT22;1272;53.332;9.860;2023-07-31T13:00:26;18.30;99.90
2523;DHT22;1272;53.332;9.860;2023-07-31T13:02:52;18.30;99.90
2523;DHT22;1272;53.332;9.860;2023-07-31T13:05:18;18.30;99.90
2523;DHT22;1272;53.332;9.860;2023-07-31T13:07:45;18.40;99.90
2523;DHT22;1272;53.332;9.860;2023-07-31T13:10:11;18.30;99.90
2523;DHT22;1272;53.332;9.860;2023-07-31T13:12:37;18.20;99.90
2523;DHT22;1272;53.332;9.860;2023-07-31T13:15:04;18.20;99.90
2523;DHT22;1272;53.332;9.860;2023-07-31T13:17:30;18.10;99.90
2523;DHT22;1272;53.332;9.860;2023-07-31T13:19:56;18.10;99.90
2523;DHT22;1272;53.332;9.860;2023-07-31T13:22:22;18.10;99.90
2523;DHT22;1272;53.332;9.860;2023-07-31T13:24:48;18.10;99.90
2523;DHT22;1272;53.332;9.860;2023-07-31T13:27:14;18.10;99.90
2523;DHT22;1272;53.332;9.860;2023-07-31T13:29:44;18.10;99.90
2523;DHT22;1272;53.332;9.860;2023-07-31T13:32:09;18.10;99.90
2523;DHT22;1272;53.332;9.860;2023-07-31T13:34:35;18.10;99.90
2523;DHT22;1272;53.332;9.860;2023-07-31T13:37:01;18.20;99.90
2523;DHT22;1272;53.332;9.860;2023-07-31T13:39:26;18.20;99.90
2523;DHT22;1272;53.332;9.860;2023-07-31T13:41:52;18.30;99.90
2523;DHT22;1272;53.332;9.860;2023-07-31T13:44:18;18.30;99.90
2523;DHT22;1272;53.332;9.860;2023-07-31T13:46:43;18.30;99.90
2523;DHT22;1272;53.332;9.860;2023-07-31T13:49:09;18.20;99.90
2523;DHT22;1272;53.332;9.860;2023-07-31T13:51:35;18.30;99.90
2523;DHT22;1272;53.332;9.860;2023-07-31T13:54:01;18.30;99.90
2523;DHT22;1272;53.332;9.860;2023-07-31T13:56:27;18.30;99.90
2523;DHT22;1272;53.332;9.860;2023-07-31T13:58:52;18.30;99.90
2523;DHT22;1272;53.332;9.860;2023-07-31T14:01:18;18.30;99.90
2523;DHT22;1272;53.332;9.860;2023-07-31T14:03:44;18.40;99.90
2523;DHT22;1272;53.332;9.860;2023-07-31T14:06:10;18.30;99.90
2523;DHT22;1272;53.332;9.860;2023-07-31T14:08:35;18.30;99.90
2523;DHT22;1272;53.332;9.860;2023-07-31T14:11:01;18.30;99.90
2523;DHT22;1272;53.332;9.860;2023-07-31T14:13:27;18.30;99.90
2523;DHT22;1272;53.332;9.860;2023-07-31T14:15:52;18.20;99.90
2523;DHT22;1272;53.332;9.860;2023-07-31T14:18:18;18.20;99.90
2523;DHT22;1272;53.332;9.860;2023-07-31T14:20:44;18.20;99.90
2523;DHT22;1272;53.332;9.860;2023-07-31T14:23:10;18.20;99.90
2523;DHT22;1272;53.332;9.860;2023-07-31T14:25:35;18.20;99.90
2523;DHT22;1272;53.332;9.860;2023-07-31T14:28:01;18.20;99.90
2523;DHT22;1272;53.332;9.860;2023-07-31T14:30:27;18.10;99.90
2523;DHT22;1272;53.332;9.860;2023-07-31T14:32:53;18.10;99.90
2523;DHT22;1272;53.332;9.860;2023-07-31T14:35:18;18.10;99.90
2523;DHT22;1272;53.332;9.860;2023-07-31T14:37:45;18.10;99.90
2523;DHT22;1272;53.332;9.860;2023-07-31T14:40:12;18.10;99.90
2523;DHT22;1272;53.332;9.860;2023-07-31T14:42:39;18.10;99.90
2523;DHT22;1272;53.332;9.860;2023-07-31T14:45:06;18.10;99.90
2523;DHT22;1272;53.332;9.860;2023-07-31T14:47:32;18.00;99.90
2523;DHT22;1272;53.332;9.860;2023-07-31T14:49:59;18.10;99.90
2523;DHT22;1272;53.332;9.860;2023-07-31T14:52:24;18.10;99.90
2523;DHT22;1272;53.332;9.860;2023-07-31T14:54:50;18.10;99.90
2523;DHT22;1272;53.332;9.860;2023-07-31T14:57:16;18.00;99.90
2523;DHT22;1272;53.332;9.860;2023-07-31T14:59:42;18.10;99.90
2523;DHT22;1272;53.332;9.860;2023-07-31T15:02:09;18.00;99.90
2523;DHT22;1272;53.332;9.860;2023-07-31T15:04:35;18.10;99.90
2523;DHT22;1272;53.332;9.860;2023-07-31T15:07:01;18.00;99.90
2523;DHT22;1272;53.332;9.860;2023-07-31T15:09:27;18.10;99.90
2523;DHT22;1272;53.332;9.860;2023-07-31T15:11:53;18.10;99.90
2523;DHT22;1272;53.332;9.860;2023-07-31T15:14:19;18.10;99.90
2523;DHT22;1272;53.332;9.860;2023-07-31T15:16:45;18.10;99.90
2523;DHT22;1272;53.332;9.860;2023-07-31T15:19:11;18.20;99.90
2523;DHT22;1272;53.332;9.860;2023-07-31T15:21:38;18.20;99.90
2523;DHT22;1272;53.332;9.860;2023-07-31T15:24:04;18.20;99.90
2523;DHT22;1272;53.332;9.860;2023-07-31T15:26:29;18.20;99.90
2523;DHT22;1272;53.332;9.860;2023-07-31T15:29:03;18.20;99.90
2523;DHT22;1272;53.332;9.860;2023-07-31T15:31:31;18.20;99.90
2523;DHT22;1272;53.332;9.860;2023-07-31T15:33:57;18.20;99.90
2523;DHT22;1272;53.332;9.860;2023-07-31T15:36:23;18.20;99.90
2523;DHT22;1272;53.332;9.860;2023-07-31T15:38:48;18.20;99.90
2523;DHT22;1272;53.332;9.860;2023-07-31T15:41:17;18.20;99.90
2523;DHT22;1272;53.332;9.860;2023-07-31T15:43:43;18.20;99.90
2523;DHT22;1272;53.332;9.860;2023-07-31T15:46:08;18.20;99.90
2523;DHT22;1272;53.332;9.860;2023-07-31T15:48:34;18.20;99.90
2523;DHT22;1272;53.332;9.860;2023-07-31T15:51:00;18.30;99.90
2523;DHT22;1272;53.332;9.860;2023-07-31T15:53:27;18.30;99.90
2523;DHT22;1272;53.332;9.860;2023-07-31T15:55:52;18.30;99.90
2523;DHT22;1272;53.332;9.860;2023-07-31T15:58:18;18.30;99.90
2523;DHT22;1272;53.332;9.860;2023-07-31T16:00:44;18.30;99.90
2523;DHT22;1272;53.332;9.860;2023-07-31T16:03:10;18.30;99.90
2523;DHT22;1272;53.332;9.860;2023-07-31T16:05:36;18.20;99.90
2523;DHT22;1272;53.332;9.860;2023-07-31T16:08:01;18.20;99.90
2523;DHT22;1272;53.332;9.860;2023-07-31T16:10:27;18.20;99.90
2523;DHT22;1272;53.332;9.860;2023-07-31T16:12:53;18.20;99.90
2523;DHT22;1272;53.332;9.860;2023-07-31T16:15:19;18.10;99.90
2523;DHT22;1272;53.332;9.860;2023-07-31T16:17:44;18.10;99.90
2523;DHT22;1272;53.332;9.860;2023-07-31T16:20:11;18.10;99.90
2523;DHT22;1272;53.332;9.860;2023-07-31T16:22:36;18.10;99.90
2523;DHT22;1272;53.332;9.860;2023-07-31T16:25:03;18.10;99.90
2523;DHT22;1272;53.332;9.860;2023-07-31T16:27:29;18.10;99.90
2523;DHT22;1272;53.332;9.860;2023-07-31T16:29:54;18.10;99.90